createdAt,value
2019-05-25T00:00:52.448Z,80.14
2019-05-25T00:01:52.440Z,80.20
2019-05-25T00:02:52.440Z,80.10
2019-05-25T00:03:52.444Z,80.20
2019-05-25T00:04:52.455Z,80.20
2019-05-25T00:05:52.401Z,80.30
2019-05-25T00:06:52.398Z,80.41
2019-05-25T00:07:52.376Z,80.41
2019-05-25T00:08:52.356Z,80.30
2019-05-25T00:09:52.369Z,80.30
2019-05-25T00:10:52.344Z,80.30
2019-05-25T00:11:52.340Z,80.41
2019-05-25T00:12:52.327Z,80.41
2019-05-25T00:13:52.311Z,80.30
2019-05-25T00:14:52.316Z,80.30
2019-05-25T00:15:52.311Z,80.10
2019-05-25T00:16:52.283Z,80.10
2019-05-25T00:17:52.512Z,80.00
2019-05-25T00:18:52.267Z,80.20
2019-05-25T00:19:52.242Z,80.24
2019-05-25T00:20:52.241Z,80.44
2019-05-25T00:21:52.221Z,80.55
2019-05-25T00:22:52.210Z,80.55
2019-05-25T00:23:52.200Z,80.65
2019-05-25T00:24:52.196Z,80.75
2019-05-25T00:25:52.188Z,80.85
2019-05-25T00:26:52.170Z,80.96
2019-05-25T00:27:52.210Z,80.96
2019-05-25T00:28:52.159Z,81.05
2019-05-25T00:29:52.138Z,81.16
2019-05-25T00:30:52.128Z,81.16
2019-05-25T00:31:52.118Z,81.16
2019-05-25T00:32:52.127Z,81.37
2019-05-25T00:33:52.098Z,81.26
2019-05-25T00:34:52.088Z,81.46
2019-05-25T00:35:52.075Z,81.67
2019-05-25T00:36:52.067Z,81.67
2019-05-25T00:37:52.064Z,81.77
2019-05-25T00:38:52.055Z,81.67
2019-05-25T00:39:52.045Z,81.67
2019-05-25T00:40:52.025Z,81.67
2019-05-25T00:41:52.012Z,81.77
2019-05-25T00:42:52.035Z,81.77
2019-05-25T00:43:52.002Z,81.67
2019-05-25T00:44:51.982Z,81.77
2019-05-25T00:45:51.984Z,81.87
2019-05-25T00:46:51.970Z,81.77
2019-05-25T00:47:51.942Z,81.77
2019-05-25T00:48:51.946Z,81.77
2019-05-25T00:49:51.933Z,81.67
2019-05-25T00:50:51.930Z,81.77
2019-05-25T00:51:51.912Z,81.87
2019-05-25T00:52:51.923Z,81.77
2019-05-25T00:53:51.884Z,81.77
2019-05-25T00:54:51.869Z,81.87
2019-05-25T00:55:51.861Z,81.87
2019-05-25T00:56:51.847Z,81.87
2019-05-25T00:57:51.847Z,81.87
2019-05-25T00:58:51.847Z,81.87
2019-05-25T00:59:51.826Z,81.87
2019-05-25T01:00:51.818Z,81.98
2019-05-25T01:01:51.794Z,81.98
2019-05-25T01:02:51.898Z,81.98
2019-05-25T01:03:51.774Z,81.87
2019-05-25T01:04:51.764Z,81.87
2019-05-25T01:05:51.753Z,81.77
2019-05-25T01:06:51.755Z,81.77
2019-05-25T01:07:51.756Z,81.67
2019-05-25T01:08:51.722Z,81.77
2019-05-25T01:09:51.711Z,81.77
2019-05-25T01:10:51.701Z,81.67
2019-05-25T01:11:51.701Z,81.77
2019-05-25T01:12:51.730Z,81.87
2019-05-25T01:13:51.670Z,81.87
2019-05-25T01:14:51.664Z,81.98
2019-05-25T01:15:51.651Z,81.87
2019-05-25T01:16:51.646Z,81.87
2019-05-25T01:17:51.630Z,81.87
2019-05-25T01:18:51.628Z,82.01
2019-05-25T01:19:51.628Z,82.12
2019-05-25T01:20:51.609Z,82.12
2019-05-25T01:21:51.596Z,82.12
2019-05-25T01:22:51.580Z,82.12
2019-05-25T01:23:51.574Z,82.12
2019-05-25T01:24:51.553Z,82.01
2019-05-25T01:25:51.543Z,81.91
2019-05-25T01:26:51.561Z,82.01
2019-05-25T01:27:51.524Z,82.01
2019-05-25T01:28:51.512Z,82.01
2019-05-25T01:29:51.514Z,81.91
2019-05-25T01:30:51.501Z,82.01
2019-05-25T01:31:51.481Z,81.91
2019-05-25T01:32:51.498Z,82.01
2019-05-25T01:33:51.500Z,82.01
2019-05-25T01:34:51.448Z,82.12
2019-05-25T01:35:51.431Z,82.12
2019-05-25T01:36:51.441Z,82.22
2019-05-25T01:37:51.431Z,82.22
2019-05-25T01:38:51.412Z,82.12
2019-05-25T01:39:51.394Z,82.22
2019-05-25T01:40:51.389Z,82.22
2019-05-25T01:41:51.389Z,82.22
2019-05-25T01:42:51.418Z,82.12
2019-05-25T01:43:51.368Z,82.01
2019-05-25T01:44:51.338Z,82.12
2019-05-25T01:45:51.331Z,82.12
2019-05-25T01:46:51.327Z,82.01
2019-05-25T01:47:51.339Z,82.01
2019-05-25T01:48:51.422Z,82.12
2019-05-25T01:49:51.285Z,82.12
2019-05-25T01:50:51.276Z,82.22
2019-05-25T01:51:51.289Z,82.22
2019-05-25T01:52:51.265Z,82.32
2019-05-25T01:53:51.273Z,82.32
2019-05-25T01:54:59.387Z,82.42
2019-05-25T01:55:52.225Z,82.63
2019-05-25T01:56:51.213Z,82.73
2019-05-25T01:57:51.202Z,82.53
2019-05-25T01:58:51.214Z,82.42
2019-05-25T01:59:51.182Z,82.32
2019-05-25T02:00:51.162Z,82.22
2019-05-25T02:01:51.169Z,82.12
2019-05-25T02:02:51.161Z,82.42
2019-05-25T02:03:51.151Z,82.42
2019-05-25T02:04:51.123Z,82.32
2019-05-25T02:05:51.120Z,82.28
2019-05-25T02:06:51.116Z,82.28
2019-05-25T02:07:51.099Z,82.08
2019-05-25T02:08:51.092Z,81.98
2019-05-25T02:09:51.090Z,81.87
2019-05-25T02:10:51.068Z,81.77
2019-05-25T02:11:51.114Z,81.57
2019-05-25T02:12:51.037Z,81.37
2019-05-25T02:13:51.092Z,81.16
2019-05-25T02:14:51.073Z,81.05
2019-05-25T02:15:51.032Z,81.16
2019-05-25T02:16:51.988Z,81.26
2019-05-25T02:17:50.993Z,81.26
2019-05-25T02:18:50.994Z,81.16
2019-05-25T02:19:50.991Z,80.85
2019-05-25T02:20:50.954Z,80.44
2019-05-25T02:21:50.953Z,80.24
2019-05-25T02:22:50.933Z,80.04
2019-05-25T02:23:50.930Z,80.04
2019-05-25T02:24:50.963Z,80.14
2019-05-25T02:25:50.915Z,80.04
2019-05-25T02:26:50.903Z,80.04
2019-05-25T02:27:50.883Z,80.04
2019-05-25T02:28:50.889Z,79.83
2019-05-25T02:29:50.870Z,79.83
2019-05-25T02:30:50.850Z,79.83
2019-05-25T02:31:50.840Z,79.83
2019-05-25T02:32:50.834Z,79.73
2019-05-25T02:33:50.817Z,79.83
2019-05-25T02:34:50.841Z,79.93
2019-05-25T02:35:50.808Z,79.83
2019-05-25T02:36:50.787Z,79.43
2019-05-25T02:37:50.810Z,79.43
2019-05-25T02:38:50.775Z,79.52
2019-05-25T02:39:50.757Z,78.91
2019-05-25T02:40:50.756Z,78.81
2019-05-25T02:41:50.734Z,78.81
2019-05-25T02:42:50.724Z,78.77
2019-05-25T02:43:50.719Z,78.71
2019-05-25T02:44:50.695Z,78.47
2019-05-25T02:45:50.714Z,78.37
2019-05-25T02:46:50.699Z,78.06
2019-05-25T02:47:50.663Z,78.20
2019-05-25T02:48:50.669Z,78.37
2019-05-25T02:49:50.653Z,78.27
2019-05-25T02:50:53.014Z,78.16
2019-05-25T02:51:50.639Z,77.55
2019-05-25T02:52:50.611Z,77.75
2019-05-25T02:53:50.602Z,77.75
2019-05-25T02:54:50.594Z,77.55
2019-05-25T02:55:50.599Z,77.55
2019-05-25T02:56:50.572Z,77.65
2019-05-25T02:57:50.572Z,77.34
2019-05-25T02:58:50.563Z,77.25
2019-05-25T02:59:50.549Z,77.25
2019-05-25T03:00:50.538Z,77.34
2019-05-25T03:01:50.528Z,77.14
2019-05-25T03:02:50.526Z,77.25
2019-05-25T03:03:50.496Z,77.04
2019-05-25T03:04:50.496Z,77.04
2019-05-25T03:05:50.478Z,77.04
2019-05-25T03:06:50.483Z,77.04
2019-05-25T03:07:50.455Z,77.14
2019-05-25T03:08:50.455Z,77.00
2019-05-25T03:09:50.435Z,76.80
2019-05-25T03:10:50.485Z,76.80
2019-05-25T03:11:50.424Z,77.00
2019-05-25T03:12:50.405Z,76.70
2019-05-25T03:13:50.398Z,76.70
2019-05-25T03:14:50.402Z,76.70
2019-05-25T03:15:50.372Z,76.70
2019-05-25T03:16:50.368Z,76.80
2019-05-25T03:17:50.351Z,76.80
2019-05-25T03:18:50.352Z,76.39
2019-05-25T03:19:50.330Z,76.39
2019-05-25T03:20:50.321Z,76.29
2019-05-25T03:21:50.312Z,75.98
2019-05-25T03:22:50.311Z,76.09
2019-05-25T03:23:50.287Z,76.29
2019-05-25T03:24:50.269Z,76.19
2019-05-25T03:25:50.433Z,76.29
2019-05-25T03:26:50.257Z,76.39
2019-05-25T03:27:50.267Z,76.70
2019-05-25T03:28:50.240Z,76.70
2019-05-25T03:29:50.226Z,75.48
2019-05-25T03:30:50.228Z,75.37
2019-05-25T03:31:50.197Z,75.57
2019-05-25T03:32:50.196Z,75.88
2019-05-25T03:33:50.197Z,75.78
2019-05-25T03:34:50.167Z,75.78
2019-05-25T03:35:50.168Z,76.09
2019-05-25T03:36:50.156Z,75.88
2019-05-25T03:37:50.149Z,75.88
2019-05-25T03:38:50.126Z,75.48
2019-05-25T03:39:50.124Z,75.37
2019-05-25T03:40:50.103Z,75.37
2019-05-25T03:41:50.090Z,75.57
2019-05-25T03:42:50.096Z,75.68
2019-05-25T03:43:50.072Z,76.09
2019-05-25T03:44:50.069Z,76.19
2019-05-25T03:45:50.058Z,76.29
2019-05-25T03:46:50.065Z,76.39
2019-05-25T03:47:50.037Z,76.50
2019-05-25T03:48:50.031Z,76.50
2019-05-25T03:49:50.009Z,76.39
2019-05-25T03:50:50.009Z,76.39
2019-05-25T03:51:49.979Z,75.78
2019-05-25T03:52:50.000Z,76.29
2019-05-25T03:53:49.978Z,77.00
2019-05-25T03:54:49.966Z,76.39
2019-05-25T03:56:04.716Z,75.88
2019-05-25T03:56:50.936Z,76.39
2019-05-25T03:57:49.936Z,74.86
2019-05-25T03:58:49.926Z,74.66
2019-05-25T03:59:49.895Z,74.05
2019-05-25T04:00:49.885Z,74.05
2019-05-25T04:01:49.893Z,74.15
2019-05-25T04:02:50.131Z,73.13
2019-05-25T04:03:49.863Z,72.82
2019-05-25T04:04:49.844Z,72.82
2019-05-25T04:06:58.762Z,72.92
2019-05-25T04:07:58.758Z,73.13
2019-05-25T04:08:58.749Z,73.33
2019-05-25T04:09:58.710Z,73.43
2019-05-25T04:10:58.721Z,73.33
2019-05-25T04:11:58.708Z,73.40
2019-05-25T04:12:58.699Z,73.50
2019-05-25T04:13:58.699Z,73.60
2019-05-25T04:14:58.666Z,72.99
2019-05-25T04:15:58.723Z,72.69
2019-05-25T04:16:58.674Z,72.38
2019-05-25T04:17:58.750Z,72.89
2019-05-25T04:18:58.633Z,73.10
2019-05-25T04:19:58.614Z,73.16
2019-05-25T04:20:58.595Z,73.16
2019-05-25T04:21:58.585Z,73.16
2019-05-25T04:22:58.581Z,72.96
2019-05-25T04:23:58.595Z,73.06
2019-05-25T04:24:58.641Z,73.06
2019-05-25T04:25:58.605Z,73.36
2019-05-25T04:26:58.545Z,73.67
2019-05-25T04:27:58.521Z,73.77
2019-05-25T04:28:58.511Z,72.65
2019-05-25T04:29:58.501Z,71.84
2019-05-25T04:30:58.510Z,71.63
2019-05-25T04:31:58.489Z,71.94
2019-05-25T04:32:58.471Z,71.73
2019-05-25T04:33:58.459Z,71.63
2019-05-25T04:34:58.459Z,71.56
2019-05-25T04:35:58.466Z,72.17
2019-05-25T04:36:58.431Z,72.28
2019-05-25T04:37:58.421Z,72.28
2019-05-25T04:38:58.411Z,72.28
2019-05-25T04:39:58.404Z,72.28
2019-05-25T04:40:58.407Z,72.38
2019-05-25T04:41:58.462Z,72.17
2019-05-25T04:42:58.373Z,72.38
2019-05-25T04:43:58.364Z,72.48
2019-05-25T04:44:58.344Z,72.58
2019-05-25T04:45:58.347Z,72.58
2019-05-25T04:46:58.327Z,72.69
2019-05-25T04:47:58.324Z,72.99
2019-05-25T04:48:58.302Z,73.16
2019-05-25T04:49:58.294Z,73.06
2019-05-25T04:50:58.293Z,73.16
2019-05-25T04:51:58.283Z,72.86
2019-05-25T04:52:58.252Z,72.96
2019-05-25T04:53:58.243Z,72.65
2019-05-25T04:54:58.232Z,72.65
2019-05-25T04:55:58.246Z,72.75
2019-05-25T04:56:58.220Z,73.10
2019-05-25T04:57:58.200Z,73.40
2019-05-25T04:58:58.198Z,73.60
2019-05-25T04:59:58.180Z,73.81
2019-05-25T05:00:58.168Z,74.49
2019-05-25T05:01:58.168Z,74.79
2019-05-25T05:02:58.156Z,75.30
2019-05-25T05:03:58.148Z,75.60
2019-05-25T05:04:58.129Z,75.30
2019-05-25T05:05:58.120Z,75.71
2019-05-25T05:06:58.147Z,75.60
2019-05-25T05:07:58.096Z,75.60
2019-05-25T05:08:58.090Z,75.10
2019-05-25T05:10:02.766Z,75.40
2019-05-25T05:10:59.065Z,75.30
2019-05-25T05:11:58.076Z,74.90
2019-05-25T05:12:58.058Z,74.58
2019-05-25T05:13:58.032Z,74.90
2019-05-25T05:14:58.022Z,74.90
2019-05-25T05:15:58.024Z,74.90
2019-05-25T05:16:58.005Z,74.49
2019-05-25T05:17:57.982Z,74.69
2019-05-25T05:18:57.981Z,74.79
2019-05-25T05:19:57.973Z,74.38
2019-05-25T05:20:57.981Z,74.49
2019-05-25T05:21:57.949Z,74.58
2019-05-25T05:22:57.932Z,74.69
2019-05-25T05:23:57.930Z,74.90
2019-05-25T05:24:57.919Z,75.30
2019-05-25T05:25:57.917Z,75.30
2019-05-25T05:26:57.897Z,75.30
2019-05-25T05:27:57.915Z,75.20
2019-05-25T05:28:57.877Z,75.60
2019-05-25T05:29:57.877Z,74.90
2019-05-25T05:30:57.872Z,74.69
2019-05-25T05:31:57.837Z,74.79
2019-05-25T05:32:57.844Z,75.40
2019-05-25T05:33:57.816Z,75.10
2019-05-25T05:34:57.817Z,74.99
2019-05-25T05:35:57.825Z,74.69
2019-05-25T05:36:57.790Z,74.69
2019-05-25T05:37:57.785Z,74.90
2019-05-25T05:38:57.763Z,74.76
2019-05-25T05:39:57.756Z,74.86
2019-05-25T05:40:57.742Z,75.06
2019-05-25T05:41:57.747Z,74.76
2019-05-25T05:42:57.735Z,74.55
2019-05-25T05:43:57.728Z,74.55
2019-05-25T05:44:57.852Z,74.76
2019-05-25T05:45:57.690Z,74.45
2019-05-25T05:46:57.692Z,74.65
2019-05-25T05:47:57.700Z,74.25
2019-05-25T05:48:57.688Z,74.35
2019-05-25T05:49:57.651Z,74.35
2019-05-25T05:50:57.639Z,74.15
2019-05-25T05:51:57.639Z,74.45
2019-05-25T05:52:57.631Z,74.04
2019-05-25T05:53:57.619Z,74.15
2019-05-25T05:54:57.597Z,74.35
2019-05-25T05:55:57.599Z,74.35
2019-05-25T05:57:11.085Z,74.96
2019-05-25T05:57:58.578Z,74.86
2019-05-25T05:58:57.566Z,74.86
2019-05-25T05:59:57.539Z,74.93
2019-05-25T06:00:57.534Z,74.93
2019-05-25T06:01:57.524Z,75.02
2019-05-25T06:02:57.514Z,75.43
2019-05-25T06:03:57.525Z,74.82
2019-05-25T06:04:57.485Z,74.82
2019-05-25T06:05:57.483Z,74.72
2019-05-25T06:08:09.022Z,74.41
2019-05-25T06:09:06.465Z,74.11
2019-05-25T06:10:06.357Z,74.11
2019-05-25T06:11:06.359Z,74.32
2019-05-25T06:12:06.340Z,74.32
2019-05-25T06:13:06.329Z,74.41
2019-05-25T06:14:06.333Z,74.18
2019-05-25T06:15:06.304Z,72.86
2019-05-25T06:16:06.296Z,72.48
2019-05-25T06:17:06.276Z,72.14
2019-05-25T06:18:06.275Z,71.94
2019-05-25T06:19:06.297Z,71.73
2019-05-25T06:20:06.246Z,71.30
2019-05-25T06:21:06.257Z,70.48
2019-05-25T06:22:06.233Z,70.28
2019-05-25T06:23:08.596Z,70.68
2019-05-25T06:24:07.221Z,70.58
2019-05-25T06:25:06.204Z,70.48
2019-05-25T06:26:06.193Z,70.45
2019-05-25T06:27:06.181Z,70.35
2019-05-25T06:28:06.169Z,69.70
2019-05-25T06:29:06.165Z,69.06
2019-05-25T06:30:06.161Z,67.78
2019-05-25T06:31:06.146Z,66.97
2019-05-25T06:32:06.120Z,66.46
2019-05-25T06:33:06.107Z,66.80
2019-05-25T06:34:06.102Z,67.30
2019-05-25T06:35:06.108Z,67.10
2019-05-25T06:36:06.079Z,67.00
2019-05-25T06:37:06.068Z,66.60
2019-05-25T06:38:06.060Z,66.52
2019-05-25T06:39:06.057Z,66.02
2019-05-25T06:40:06.053Z,66.52
2019-05-25T06:41:08.555Z,66.86
2019-05-25T06:42:06.019Z,67.77
2019-05-25T06:43:06.007Z,67.97
2019-05-25T06:44:06.009Z,67.84
2019-05-25T06:45:05.997Z,67.54
2019-05-25T06:46:05.974Z,67.67
2019-05-25T06:47:05.954Z,67.36
2019-05-25T06:48:05.954Z,67.24
2019-05-25T06:49:05.933Z,67.64
2019-05-25T06:50:05.943Z,67.41
2019-05-25T06:51:05.914Z,67.71
2019-05-25T06:52:05.925Z,67.58
2019-05-25T06:53:05.904Z,67.17
2019-05-25T06:54:05.883Z,66.63
2019-05-25T06:55:05.882Z,66.13
2019-05-25T06:56:05.871Z,66.16
2019-05-25T06:57:05.870Z,66.66
2019-05-25T06:58:05.840Z,66.36
2019-05-25T06:59:05.830Z,66.66
2019-05-25T07:00:05.839Z,66.97
2019-05-25T07:01:05.809Z,66.66
2019-05-25T07:02:05.798Z,66.56
2019-05-25T07:03:05.794Z,66.66
2019-05-25T07:04:05.768Z,66.97
2019-05-25T07:05:05.787Z,66.74
2019-05-25T07:06:05.751Z,65.92
2019-05-25T07:07:05.737Z,65.69
2019-05-25T07:08:05.753Z,64.75
2019-05-25T07:09:05.727Z,64.31
2019-05-25T07:10:05.716Z,63.37
2019-05-25T07:11:05.719Z,63.17
2019-05-25T07:12:05.718Z,63.21
2019-05-25T07:13:05.678Z,60.93
2019-05-25T07:14:05.685Z,59.91
2019-05-25T07:15:05.654Z,60.12
2019-05-25T07:16:05.644Z,59.69
2019-05-25T07:17:05.634Z,58.82
2019-05-25T07:18:05.635Z,57.15
2019-05-25T07:19:05.626Z,56.22
2019-05-25T07:20:05.623Z,54.48
2019-05-25T07:21:05.593Z,54.35
2019-05-25T07:22:05.574Z,53.22
2019-05-25T07:23:05.561Z,53.65
2019-05-25T07:24:05.561Z,54.61
2019-05-25T07:25:05.563Z,54.71
2019-05-25T07:26:05.551Z,54.28
2019-05-25T07:27:05.529Z,53.78
2019-05-25T07:28:05.522Z,55.24
2019-05-25T07:29:05.511Z,56.48
2019-05-25T07:30:05.579Z,57.87
2019-05-25T07:31:05.492Z,58.25
2019-05-25T07:32:05.473Z,58.17
2019-05-25T07:33:05.460Z,58.78
2019-05-25T07:34:05.449Z,57.91
2019-05-25T07:35:05.438Z,56.65
2019-05-25T07:36:07.568Z,55.77
2019-05-25T07:37:05.420Z,55.77
2019-05-25T07:38:05.407Z,56.32
2019-05-25T07:39:05.408Z,57.39
2019-05-25T07:40:05.386Z,58.43
2019-05-25T07:41:05.385Z,59.56
2019-05-25T07:42:05.360Z,60.91
2019-05-25T07:43:05.354Z,62.05
2019-05-25T07:44:05.357Z,62.99
2019-05-25T07:45:05.336Z,63.43
2019-05-25T07:46:05.326Z,64.24
2019-05-25T07:47:05.315Z,63.93
2019-05-25T07:48:05.316Z,63.63
2019-05-25T07:49:05.313Z,63.73
2019-05-25T07:50:05.302Z,64.54
2019-05-25T07:51:05.273Z,64.75
2019-05-25T07:52:05.253Z,63.93
2019-05-25T07:53:05.254Z,63.83
2019-05-25T07:54:05.233Z,63.70
2019-05-25T07:55:05.226Z,65.02
2019-05-25T07:56:05.212Z,64.41
2019-05-25T07:57:05.213Z,63.53
2019-05-25T07:58:16.508Z,65.36
2019-05-25T07:59:06.183Z,63.96
2019-05-25T08:00:05.211Z,64.07
2019-05-25T08:01:05.161Z,64.27
2019-05-25T08:02:05.150Z,64.24
2019-05-25T08:03:05.137Z,62.26
2019-05-25T08:04:05.128Z,61.08
2019-05-25T08:05:05.129Z,58.95
2019-05-25T08:06:05.117Z,56.35
2019-05-25T08:07:05.106Z,53.17
2019-05-25T08:08:05.577Z,51.81
2019-05-25T08:09:05.069Z,51.79
2019-05-25T08:10:05.060Z,50.98
2019-05-25T08:11:05.068Z,50.63
2019-05-25T08:12:05.047Z,50.11
2019-05-25T08:13:05.040Z,50.33
2019-05-25T08:14:05.026Z,50.81
2019-05-25T08:15:05.018Z,51.08
2019-05-25T08:16:05.006Z,52.84
2019-05-25T08:17:04.986Z,53.34
2019-05-25T08:18:05.003Z,53.83
2019-05-25T08:19:04.967Z,54.13
2019-05-25T08:20:04.965Z,54.33
2019-05-25T08:21:04.937Z,54.03
2019-05-25T08:22:04.945Z,54.03
2019-05-25T08:23:04.925Z,53.34
2019-05-25T08:24:04.915Z,53.20
2019-05-25T08:25:04.899Z,50.38
2019-05-25T08:26:04.902Z,47.88
2019-05-25T08:27:04.876Z,45.36
2019-05-25T08:28:04.873Z,44.62
2019-05-25T08:29:04.860Z,42.93
2019-05-25T08:30:04.864Z,42.82
2019-05-25T08:31:04.833Z,44.32
2019-05-25T08:32:04.822Z,42.61
2019-05-25T08:33:04.828Z,40.30
2019-05-25T08:34:04.811Z,37.84
2019-05-25T08:35:04.796Z,37.16
2019-05-25T08:36:04.797Z,39.98
2019-05-25T08:37:04.770Z,40.92
2019-05-25T08:38:04.763Z,43.19
2019-05-25T08:39:04.773Z,44.96
2019-05-25T08:40:04.739Z,45.80
2019-05-25T08:41:04.739Z,46.42
2019-05-25T08:42:04.729Z,47.05
2019-05-25T08:43:04.708Z,46.73
2019-05-25T08:44:04.731Z,46.53
2019-05-25T08:45:04.688Z,44.13
2019-05-25T08:46:04.682Z,44.60
2019-05-25T08:47:04.686Z,47.32
2019-05-25T08:48:04.668Z,49.48
2019-05-25T08:49:04.655Z,51.48
2019-05-25T08:50:04.659Z,53.75
2019-05-25T08:51:04.638Z,53.30
2019-05-25T08:52:04.616Z,51.66
2019-05-25T08:53:04.603Z,53.75
2019-05-25T08:54:04.604Z,55.32
2019-05-25T08:55:04.605Z,53.60
2019-05-25T08:56:04.570Z,53.67
2019-05-25T08:57:04.555Z,55.65
2019-05-25T08:58:04.546Z,56.48
2019-05-25T08:59:04.535Z,56.25
2019-05-25T09:00:04.536Z,56.43
2019-05-25T09:01:04.544Z,55.90
2019-05-25T09:02:04.505Z,55.26
2019-05-25T09:03:04.509Z,55.77
2019-05-25T09:04:04.484Z,55.44
2019-05-25T09:05:04.521Z,55.24
2019-05-25T09:06:04.482Z,55.01
2019-05-25T09:07:04.453Z,54.94
2019-05-25T09:08:04.443Z,55.54
2019-05-25T09:09:04.432Z,54.83
2019-05-25T09:10:04.577Z,54.53
2019-05-25T09:11:04.423Z,54.63
2019-05-25T09:12:04.411Z,55.14
2019-05-25T09:13:04.391Z,54.66
2019-05-25T09:14:04.385Z,55.59
2019-05-25T09:15:06.044Z,56.10
2019-05-25T09:16:04.381Z,56.63
2019-05-25T09:17:04.352Z,56.02
2019-05-25T09:18:04.340Z,56.32
2019-05-25T09:19:04.321Z,56.93
2019-05-25T09:20:04.318Z,55.87
2019-05-25T09:21:04.368Z,55.49
2019-05-25T09:22:04.291Z,55.69
2019-05-25T09:23:04.289Z,56.50
2019-05-25T09:24:04.297Z,55.90
2019-05-25T09:25:04.288Z,55.72
2019-05-25T09:26:04.261Z,57.06
2019-05-25T09:27:04.237Z,57.97
2019-05-25T09:28:04.256Z,57.49
2019-05-25T09:29:05.100Z,57.89
2019-05-25T09:30:04.207Z,58.23
2019-05-25T09:31:04.239Z,58.43
2019-05-25T09:32:06.977Z,58.60
2019-05-25T09:33:04.173Z,58.20
2019-05-25T09:34:04.164Z,57.76
2019-05-25T09:35:04.146Z,57.97
2019-05-25T09:36:04.165Z,57.03
2019-05-25T09:37:04.134Z,56.43
2019-05-25T09:38:04.125Z,57.03
2019-05-25T09:39:04.122Z,57.03
2019-05-25T09:40:04.113Z,56.93
2019-05-25T09:41:04.102Z,57.26
2019-05-25T09:42:04.073Z,57.09
2019-05-25T09:43:04.089Z,57.69
2019-05-25T09:44:04.059Z,57.79
2019-05-25T09:45:04.062Z,57.97
2019-05-25T09:46:04.034Z,57.97
2019-05-25T09:47:04.051Z,56.50
2019-05-25T09:48:04.027Z,55.29
2019-05-25T09:49:04.011Z,55.06
2019-05-25T09:50:03.999Z,54.79
2019-05-25T09:51:03.989Z,54.86
2019-05-25T09:52:04.017Z,54.53
2019-05-25T09:53:03.979Z,54.33
2019-05-25T09:54:03.948Z,54.73
2019-05-25T09:55:03.958Z,55.21
2019-05-25T09:56:03.927Z,54.68
2019-05-25T09:57:03.953Z,51.34
2019-05-25T09:58:03.919Z,50.43
2019-05-25T09:59:17.605Z,50.23
2019-05-25T10:00:04.886Z,51.34
2019-05-25T10:01:03.887Z,51.54
2019-05-25T10:02:03.864Z,51.56
2019-05-25T10:03:03.846Z,50.85
2019-05-25T10:04:03.862Z,51.10
2019-05-25T10:05:04.063Z,52.44
2019-05-25T10:06:10.790Z,52.64
2019-05-25T10:07:04.814Z,52.62
2019-05-25T10:08:03.835Z,51.76
2019-05-25T10:09:03.805Z,51.26
2019-05-25T10:10:03.782Z,51.97
2019-05-25T10:11:03.771Z,53.09
2019-05-25T10:12:03.763Z,54.96
2019-05-25T10:13:03.762Z,57.56
2019-05-25T10:14:03.745Z,58.67
2019-05-25T10:15:03.731Z,59.18
2019-05-25T10:16:03.737Z,58.98
2019-05-25T10:17:03.711Z,59.18
2019-05-25T10:18:03.702Z,59.11
2019-05-25T10:19:03.691Z,56.98
2019-05-25T10:20:03.675Z,57.18
2019-05-25T10:21:03.670Z,57.69
2019-05-25T10:22:03.651Z,56.58
2019-05-25T10:23:03.659Z,57.39
2019-05-25T10:24:03.630Z,56.96
2019-05-25T10:25:03.619Z,56.32
2019-05-25T10:26:03.608Z,56.63
2019-05-25T10:27:03.598Z,56.37
2019-05-25T10:28:03.589Z,56.35
2019-05-25T10:29:03.588Z,55.66
2019-05-25T10:30:03.567Z,57.41
2019-05-25T10:31:03.557Z,56.60
2019-05-25T10:32:03.567Z,55.90
2019-05-25T10:33:03.536Z,56.02
2019-05-25T10:34:03.528Z,55.54
2019-05-25T10:35:03.516Z,56.58
2019-05-25T10:36:03.510Z,57.09
2019-05-25T10:37:03.488Z,57.92
2019-05-25T10:38:03.489Z,58.33
2019-05-25T10:39:03.478Z,58.91
2019-05-25T10:40:03.464Z,57.16
2019-05-25T10:41:03.476Z,56.96
2019-05-25T10:42:03.433Z,55.82
2019-05-25T10:43:03.425Z,55.69
2019-05-25T10:44:03.416Z,54.86
2019-05-25T10:45:03.424Z,54.68
2019-05-25T10:46:03.393Z,55.52
2019-05-25T10:47:03.393Z,55.49
2019-05-25T10:48:03.372Z,55.57
2019-05-25T10:49:03.367Z,54.66
2019-05-25T10:50:03.361Z,55.16
2019-05-25T10:51:03.342Z,55.14
2019-05-25T10:52:03.334Z,54.50
2019-05-25T10:53:03.356Z,54.58
2019-05-25T10:54:03.322Z,53.78
2019-05-25T10:55:03.291Z,53.80
2019-05-25T10:56:03.331Z,54.83
2019-05-25T10:57:03.292Z,55.36
2019-05-25T10:58:03.262Z,54.86
2019-05-25T10:59:03.259Z,55.16
2019-05-25T11:00:03.240Z,55.64
2019-05-25T11:01:03.230Z,56.37
2019-05-25T11:02:03.261Z,55.09
2019-05-25T11:03:03.208Z,56.52
2019-05-25T11:04:03.217Z,56.12
2019-05-25T11:05:03.189Z,55.82
2019-05-25T11:06:03.193Z,55.90
2019-05-25T11:07:03.166Z,56.81
2019-05-25T11:08:03.166Z,56.98
2019-05-25T11:09:03.147Z,56.27
2019-05-25T11:10:03.145Z,54.83
2019-05-25T11:11:03.129Z,54.94
2019-05-25T11:12:03.137Z,54.53
2019-05-25T11:13:03.124Z,55.66
2019-05-25T11:14:03.095Z,55.97
2019-05-25T11:15:03.136Z,54.94
2019-05-25T11:16:03.074Z,54.00
2019-05-25T11:17:03.073Z,53.98
2019-05-25T11:18:03.076Z,53.34
2019-05-25T11:19:03.067Z,51.71
2019-05-25T11:20:03.041Z,50.81
2019-05-25T11:21:03.061Z,51.31
2019-05-25T11:22:03.036Z,51.11
2019-05-25T11:23:02.996Z,51.51
2019-05-25T11:24:02.982Z,52.42
2019-05-25T11:25:03.018Z,52.62
2019-05-25T11:26:02.961Z,52.51
2019-05-25T11:27:02.951Z,51.68
2019-05-25T11:28:02.947Z,51.79
2019-05-25T11:29:02.956Z,51.79
2019-05-25T11:30:08.997Z,51.39
2019-05-25T11:31:03.909Z,50.76
2019-05-25T11:32:05.462Z,50.46
2019-05-25T11:33:02.914Z,50.26
2019-05-25T11:34:02.879Z,50.15
2019-05-25T11:35:02.878Z,50.78
2019-05-25T11:36:02.859Z,51.49
2019-05-25T11:37:02.874Z,50.58
2019-05-25T11:38:02.837Z,51.29
2019-05-25T11:39:02.837Z,51.18
2019-05-25T11:40:02.817Z,51.36
2019-05-25T11:41:02.797Z,50.76
2019-05-25T11:42:02.806Z,49.76
2019-05-25T11:43:02.788Z,51.11
2019-05-25T11:44:02.777Z,52.24
2019-05-25T11:45:02.776Z,52.24
2019-05-25T11:46:02.756Z,52.72
2019-05-25T11:47:02.768Z,52.42
2019-05-25T11:48:02.753Z,52.29
2019-05-25T11:49:02.733Z,52.39
2019-05-25T11:50:02.706Z,51.49
2019-05-25T11:51:02.715Z,50.66
2019-05-25T11:52:02.702Z,50.76
2019-05-25T11:53:05.722Z,50.96
2019-05-25T11:54:02.663Z,50.38
2019-05-25T11:55:02.661Z,51.29
2019-05-25T11:56:02.686Z,51.64
2019-05-25T11:57:02.631Z,52.54
2019-05-25T11:58:02.621Z,52.74
2019-05-25T11:59:02.622Z,52.84
2019-05-25T12:00:02.600Z,52.82
2019-05-25T12:01:02.601Z,51.79
2019-05-25T12:02:02.593Z,51.59
2019-05-25T12:03:02.586Z,50.76
2019-05-25T12:04:02.560Z,50.89
2019-05-25T12:05:02.549Z,51.61
2019-05-25T12:06:02.540Z,52.11
2019-05-25T12:07:02.538Z,52.31
2019-05-25T12:08:02.510Z,52.29
2019-05-25T12:09:02.519Z,52.80
2019-05-25T12:10:02.546Z,51.39
2019-05-25T12:11:02.478Z,51.29
2019-05-25T12:12:02.482Z,50.38
2019-05-25T12:13:02.457Z,50.48
2019-05-25T12:14:02.784Z,50.38
2019-05-25T12:15:02.436Z,50.38
2019-05-25T12:16:02.437Z,50.89
2019-05-25T12:17:02.426Z,50.89
2019-05-25T12:18:02.425Z,51.18
2019-05-25T12:19:02.396Z,51.49
2019-05-25T12:20:02.385Z,51.49
2019-05-25T12:21:02.397Z,51.59
2019-05-25T12:22:02.365Z,51.09
2019-05-25T12:23:02.837Z,51.89
2019-05-25T12:24:02.359Z,51.79
2019-05-25T12:25:02.333Z,51.89
2019-05-25T12:26:02.363Z,51.99
2019-05-25T12:27:02.313Z,51.99
2019-05-25T12:28:02.553Z,51.46
2019-05-25T12:29:02.293Z,51.46
2019-05-25T12:30:02.283Z,50.96
2019-05-25T12:31:02.307Z,50.23
2019-05-25T12:32:04.455Z,50.13
2019-05-25T12:33:02.252Z,49.93
2019-05-25T12:34:02.231Z,50.03
2019-05-25T12:35:02.231Z,49.33
2019-05-25T12:36:02.246Z,49.73
2019-05-25T12:37:02.202Z,49.33
2019-05-25T12:38:02.190Z,49.83
2019-05-25T12:39:02.200Z,50.84
2019-05-25T12:40:02.321Z,50.15
2019-05-25T12:41:02.170Z,50.56
2019-05-25T12:42:02.151Z,50.96
2019-05-25T12:43:02.150Z,52.39
2019-05-25T12:44:02.158Z,51.29
2019-05-25T12:45:02.122Z,50.98
2019-05-25T12:46:02.124Z,51.09
2019-05-25T12:47:02.098Z,51.11
2019-05-25T12:48:02.088Z,51.11
2019-05-25T12:49:02.085Z,51.31
2019-05-25T12:50:02.096Z,51.21
2019-05-25T12:51:02.068Z,51.34
2019-05-25T12:52:02.051Z,51.93
2019-05-25T12:53:02.065Z,52.54
2019-05-25T12:54:02.034Z,53.47
2019-05-25T12:55:02.015Z,52.67